Time;durP1;ratioP1;P1;durP2;ratioP2;P2;SDS_P1;SDS_P2;PMS_P1;PMS_P2;Temp;Humidity;BMP_temperature;BMP_pressure;BME280_temperature;BME280_humidity;BME280_pressure;Samples;Min_cycle;Max_cycle;Signal;HPM_P1;HPM_P2
2021/12/03 00:01:07;;;;;;;;;8.33;7.33;;;;;;;;5081003;27;45446;-74
2021/12/03 00:03:32;;;;;;;;;12.00;9.00;;;;;;;;5086441;27;46389;-74
2021/12/03 00:05:58;;;;;;;;;9.00;8.00;;;;;;;;5080970;27;46102;-74
2021/12/03 00:08:25;;;;;;;;;7.33;7.33;;;;;;;;5083224;27;45579;-74
2021/12/03 00:10:55;;;;;;;;;8.75;7.00;;;;;;;;5077253;27;45543;-75
2021/12/03 00:13:20;;;;;;;;;7.50;7.50;;;;;;;;5091010;27;46234;-74
2021/12/03 00:15:46;;;;;;;;;14.25;8.50;;;;;;;;5078997;27;45570;-74
2021/12/03 00:18:11;;;;;;;;;8.25;6.00;;;;;;;;5082141;27;45443;-75
2021/12/03 00:20:36;;;;;;;;;10.00;9.00;;;;;;;;5079950;27;45292;-75
2021/12/03 00:23:04;;;;;;;;;11.33;6.67;;;;;;;;5080814;27;46763;-74
2021/12/03 00:25:30;;;;;;;;;12.00;10.25;;;;;;;;5087159;27;45887;-75
2021/12/03 00:27:55;;;;;;;;;11.75;10.50;;;;;;;;5074689;27;45644;-74
2021/12/03 00:30:20;;;;;;;;;14.25;10.00;;;;;;;;5076529;27;45555;-75
2021/12/03 00:32:46;;;;;;;;;16.00;11.75;;;;;;;;5075348;27;46092;-75
2021/12/03 00:35:13;;;;;;;;;14.00;14.00;;;;;;;;5082931;27;45925;-75
2021/12/03 00:37:39;;;;;;;;;11.75;8.75;;;;;;;;5077839;27;45474;-74
2021/12/03 00:40:06;;;;;;;;;9.50;9.50;;;;;;;;5089507;27;45688;-75
2021/12/03 00:42:32;;;;;;;;;9.75;9.50;;;;;;;;5072546;27;46311;-75
2021/12/03 00:44:57;;;;;;;;;16.75;12.00;;;;;;;;5079837;27;45702;-74
2021/12/03 00:47:23;;;;;;;;;10.33;9.00;;;;;;;;5081780;27;45648;-74
2021/12/03 00:49:48;;;;;;;;;16.00;10.50;;;;;;;;5062831;27;45426;-74
2021/12/03 00:52:14;;;;;;;;;17.33;15.00;;;;;;;;5075375;27;45717;-75
2021/12/03 00:54:39;;;;;;;;;18.50;15.25;;;;;;;;5090038;27;45678;-74
2021/12/03 00:57:05;;;;;;;;;16.00;14.00;;;;;;;;5079157;27;45460;-74
2021/12/03 00:59:30;;;;;;;;;19.25;15.75;;;;;;;;5080395;27;45479;-74
2021/12/03 01:01:55;;;;;;;;;26.00;19.00;;;;;;;;5079438;27;46328;-74
2021/12/03 01:04:21;;;;;;;;;22.75;19.50;;;;;;;;5074461;27;45571;-74
2021/12/03 01:06:46;;;;;;;;;26.25;16.00;;;;;;;;5079721;27;45446;-74
2021/12/03 01:09:11;;;;;;;;;24.33;18.67;;;;;;;;5083297;27;45567;-75
2021/12/03 01:11:38;;;;;;;;;24.67;21.33;;;;;;;;5086163;27;45404;-74
2021/12/03 01:14:03;;;;;;;;;30.75;21.50;;;;;;;;5084628;27;45935;-74
2021/12/03 01:16:29;;;;;;;;;25.33;20.67;;;;;;;;5077770;27;45398;-75
2021/12/03 01:18:54;;;;;;;;;21.00;18.50;;;;;;;;5062588;27;45411;-75
2021/12/03 01:21:20;;;;;;;;;26.75;20.25;;;;;;;;5087238;27;45399;-75
2021/12/03 01:23:46;;;;;;;;;21.00;18.00;;;;;;;;5063739;27;45463;-74
2021/12/03 01:26:11;;;;;;;;;20.50;18.75;;;;;;;;5076549;27;45453;-74
2021/12/03 01:28:36;;;;;;;;;22.00;17.50;;;;;;;;5063026;27;45519;-74
2021/12/03 01:31:02;;;;;;;;;20.33;19.00;;;;;;;;5078312;27;46033;-74
2021/12/03 01:33:27;;;;;;;;;18.25;16.25;;;;;;;;5092671;27;45408;-75
2021/12/03 01:35:52;;;;;;;;;17.67;14.33;;;;;;;;5061450;28;45579;-74
2021/12/03 01:38:18;;;;;;;;;20.67;17.67;;;;;;;;5063887;27;45475;-75
2021/12/03 01:40:44;;;;;;;;;16.75;12.25;;;;;;;;5079971;27;45654;-74
2021/12/03 01:43:12;;;;;;;;;19.25;15.75;;;;;;;;5060412;27;45841;-75
2021/12/03 01:45:39;;;;;;;;;14.75;12.00;;;;;;;;5085877;27;45313;-75
2021/12/03 01:48:04;;;;;;;;;16.25;12.75;;;;;;;;5086885;27;45481;-74
2021/12/03 01:50:35;;;;;;;;;19.75;15.00;;;;;;;;5077309;27;46095;-74
2021/12/03 01:53:00;;;;;;;;;23.75;15.75;;;;;;;;5066730;27;45613;-75
2021/12/03 01:55:26;;;;;;;;;20.25;13.25;;;;;;;;5069446;27;45479;-74
2021/12/03 01:57:51;;;;;;;;;15.00;12.67;;;;;;;;5080097;27;45714;-74
2021/12/03 02:00:18;;;;;;;;;19.00;14.75;;;;;;;;5077609;27;45507;-75
2021/12/03 02:02:44;;;;;;;;;18.00;15.50;;;;;;;;5085303;27;45391;-75
2021/12/03 02:05:10;;;;;;;;;16.50;13.00;;;;;;;;5077780;27;45386;-75
2021/12/03 02:07:35;;;;;;;;;22.75;15.00;;;;;;;;5086646;27;46001;-75
2021/12/03 02:10:00;;;;;;;;;11.67;11.33;;;;;;;;5085956;27;46081;-75
2021/12/03 02:12:25;;;;;;;;;12.67;11.00;;;;;;;;5087900;27;45364;-75
2021/12/03 02:14:51;;;;;;;;;15.00;13.33;;;;;;;;5061425;27;45469;-75
2021/12/03 02:17:16;;;;;;;;;14.67;12.00;;;;;;;;5082306;27;45513;-74
2021/12/03 02:19:41;;;;;;;;;15.33;8.33;;;;;;;;5079647;27;46202;-75
2021/12/03 02:22:06;;;;;;;;;15.00;12.00;;;;;;;;5076013;27;45544;-75
2021/12/03 02:24:32;;;;;;;;;15.67;13.33;;;;;;;;5077446;27;45371;-75
2021/12/03 02:26:57;;;;;;;;;11.50;11.50;;;;;;;;5077916;27;45467;-74
2021/12/03 02:29:22;;;;;;;;;15.00;11.50;;;;;;;;5075754;27;46626;-75
2021/12/03 02:31:48;;;;;;;;;15.67;12.67;;;;;;;;5081443;27;45565;-74
2021/12/03 02:34:13;;;;;;;;;16.75;12.25;;;;;;;;5061857;27;45567;-73
2021/12/03 02:36:38;;;;;;;;;16.67;11.67;;;;;;;;5075978;27;45366;-73
2021/12/03 02:39:03;;;;;;;;;14.67;12.00;;;;;;;;5091723;27;46054;-75
2021/12/03 02:41:29;;;;;;;;;15.25;12.00;;;;;;;;5066944;28;45416;-74
2021/12/03 02:43:54;;;;;;;;;13.67;11.00;;;;;;;;5082789;27;45507;-74
2021/12/03 02:46:19;;;;;;;;;12.00;12.00;;;;;;;;5082263;27;46791;-74
2021/12/03 02:48:44;;;;;;;;;15.00;12.67;;;;;;;;5071944;27;46904;-74
2021/12/03 02:51:09;;;;;;;;;18.00;15.00;;;;;;;;5086803;27;45418;-74
2021/12/03 02:53:35;;;;;;;;;16.67;11.33;;;;;;;;5086279;27;45400;-74
2021/12/03 02:56:00;;;;;;;;;15.00;15.00;;;;;;;;5087167;27;45406;-75
2021/12/03 02:58:26;;;;;;;;;19.33;12.67;;;;;;;;5081185;27;46349;-74
2021/12/03 03:00:53;;;;;;;;;18.75;14.75;;;;;;;;5079572;27;46179;-74
2021/12/03 03:03:20;;;;;;;;;19.50;13.75;;;;;;;;5088702;27;45489;-74
2021/12/03 03:05:51;;;;;;;;;12.25;11.75;;;;;;;;5078934;27;45600;-74
2021/12/03 03:08:16;;;;;;;;;13.25;12.00;;;;;;;;5077278;27;45830;-74
2021/12/03 03:10:42;;;;;;;;;15.33;11.67;;;;;;;;5078437;27;45879;-75
2021/12/03 03:13:07;;;;;;;;;17.75;13.00;;;;;;;;5073404;27;45506;-74
2021/12/03 03:15:33;;;;;;;;;15.00;14.25;;;;;;;;5079213;27;45346;-74
2021/12/03 03:18:07;;;;;;;;;14.00;13.75;;;;;;;;5080612;27;45552;-74
2021/12/03 03:20:32;;;;;;;;;15.50;14.75;;;;;;;;5080488;27;45306;-74
2021/12/03 03:22:57;;;;;;;;;19.00;15.00;;;;;;;;5082454;27;45272;-74
2021/12/03 03:25:23;;;;;;;;;23.33;18.33;;;;;;;;5076873;27;45542;-74
2021/12/03 03:27:49;;;;;;;;;19.25;14.50;;;;;;;;5081062;27;46041;-74
2021/12/03 03:30:16;;;;;;;;;15.00;14.25;;;;;;;;5095007;27;45535;-74
2021/12/03 03:32:41;;;;;;;;;20.25;16.50;;;;;;;;5078988;27;45507;-74
2021/12/03 03:35:07;;;;;;;;;14.00;12.00;;;;;;;;5087026;27;45542;-74
2021/12/03 03:37:32;;;;;;;;;16.25;14.25;;;;;;;;5079916;27;45704;-75
2021/12/03 03:39:57;;;;;;;;;18.67;18.00;;;;;;;;5077336;27;45862;-74
2021/12/03 03:42:22;;;;;;;;;17.00;15.33;;;;;;;;5074887;27;45564;-74
2021/12/03 03:44:48;;;;;;;;;21.33;13.33;;;;;;;;5081894;27;45668;-74
2021/12/03 03:47:13;;;;;;;;;17.25;14.50;;;;;;;;5079386;27;45616;-75
2021/12/03 03:49:39;;;;;;;;;21.00;16.75;;;;;;;;5076436;27;45471;-74
2021/12/03 03:52:05;;;;;;;;;15.75;15.00;;;;;;;;5081069;27;45805;-74
2021/12/03 03:54:30;;;;;;;;;15.25;12.75;;;;;;;;5074232;27;45251;-74
2021/12/03 03:56:55;;;;;;;;;15.00;11.33;;;;;;;;5081658;27;45369;-74
2021/12/03 03:59:21;;;;;;;;;15.00;12.50;;;;;;;;5079655;27;45558;-75
2021/12/03 04:01:47;;;;;;;;;13.75;11.25;;;;;;;;5066168;27;45639;-74
2021/12/03 04:04:13;;;;;;;;;18.50;11.25;;;;;;;;5079739;27;45475;-74
2021/12/03 04:06:38;;;;;;;;;16.50;14.75;;;;;;;;5074571;27;46123;-74
2021/12/03 04:09:03;;;;;;;;;20.00;12.00;;;;;;;;5080472;27;45508;-74
2021/12/03 04:11:29;;;;;;;;;19.75;12.25;;;;;;;;5096128;27;45674;-74
2021/12/03 04:13:55;;;;;;;;;12.00;11.00;;;;;;;;5080265;27;45595;-74
2021/12/03 04:16:20;;;;;;;;;18.33;13.00;;;;;;;;5079562;27;45713;-74
2021/12/03 04:18:46;;;;;;;;;13.50;13.50;;;;;;;;5067426;27;45956;-74
2021/12/03 04:21:11;;;;;;;;;19.25;15.00;;;;;;;;5090191;27;45556;-74
2021/12/03 04:23:36;;;;;;;;;16.67;11.67;;;;;;;;5082211;27;45283;-74
2021/12/03 04:26:01;;;;;;;;;14.67;12.00;;;;;;;;5087281;27;45448;-75
2021/12/03 04:28:27;;;;;;;;;20.33;15.67;;;;;;;;5077393;27;45460;-75
2021/12/03 04:30:52;;;;;;;;;14.00;14.00;;;;;;;;5075360;27;45364;-74
2021/12/03 04:33:18;;;;;;;;;16.25;13.00;;;;;;;;5080997;27;45366;-74
2021/12/03 04:35:43;;;;;;;;;14.25;11.75;;;;;;;;5077573;27;45993;-74
2021/12/03 04:38:08;;;;;;;;;14.25;10.25;;;;;;;;5082100;27;45531;-74
2021/12/03 04:40:34;;;;;;;;;18.00;15.00;;;;;;;;5086615;27;45536;-74
2021/12/03 04:43:00;;;;;;;;;11.75;11.75;;;;;;;;5089001;27;45400;-74
2021/12/03 04:45:26;;;;;;;;;12.00;11.75;;;;;;;;5085875;27;45445;-74
2021/12/03 04:47:52;;;;;;;;;17.00;12.50;;;;;;;;5080077;27;45499;-75
2021/12/03 04:50:19;;;;;;;;;14.75;11.00;;;;;;;;5081847;27;45537;-74
2021/12/03 04:52:44;;;;;;;;;15.50;14.00;;;;;;;;5076690;27;45426;-74
2021/12/03 04:55:09;;;;;;;;;18.00;14.67;;;;;;;;5090241;27;45476;-74
2021/12/03 04:57:35;;;;;;;;;18.00;15.00;;;;;;;;5077420;27;46396;-74
2021/12/03 05:00:00;;;;;;;;;20.33;13.00;;;;;;;;5082271;27;45334;-74
2021/12/03 05:02:27;;;;;;;;;13.00;12.00;;;;;;;;5081772;27;45457;-74
2021/12/03 05:04:54;;;;;;;;;13.50;10.00;;;;;;;;5077929;27;45417;-74
2021/12/03 05:07:53;;;;;;;;;14.50;11.50;;;;;;;;5079352;27;45464;-74
2021/12/03 05:10:17;;;;;;;;;12.75;11.50;;;;;;;;5076177;27;45455;-74
2021/12/03 05:12:42;;;;;;;;;11.25;8.25;;;;;;;;5076263;27;45535;-74
2021/12/03 05:15:08;;;;;;;;;17.33;14.00;;;;;;;;5087743;27;46261;-74
2021/12/03 05:17:33;;;;;;;;;11.25;10.00;;;;;;;;5080185;27;45489;-74
2021/12/03 05:19:58;;;;;;;;;13.33;11.00;;;;;;;;5086966;27;45553;-74
2021/12/03 05:22:23;;;;;;;;;19.00;9.33;;;;;;;;5088619;27;45381;-74
2021/12/03 05:24:49;;;;;;;;;10.00;10.00;;;;;;;;5071109;27;46219;-74
2021/12/03 05:27:15;;;;;;;;;12.00;11.50;;;;;;;;5085961;27;45382;-74
2021/12/03 05:29:41;;;;;;;;;17.50;13.50;;;;;;;;5078680;27;45532;-74
2021/12/03 05:32:06;;;;;;;;;19.25;13.25;;;;;;;;5078073;27;45613;-74
2021/12/03 05:34:32;;;;;;;;;11.33;9.33;;;;;;;;5080244;27;45640;-74
2021/12/03 05:36:57;;;;;;;;;10.75;9.00;;;;;;;;5073087;27;45931;-74
2021/12/03 05:39:23;;;;;;;;;14.67;11.00;;;;;;;;5091133;27;45394;-74
2021/12/03 05:41:48;;;;;;;;;15.50;12.75;;;;;;;;5077674;27;45878;-74
2021/12/03 05:44:13;;;;;;;;;18.00;8.75;;;;;;;;5080321;27;45510;-74
2021/12/03 05:46:39;;;;;;;;;13.33;10.67;;;;;;;;5079216;27;45687;-74
2021/12/03 05:49:04;;;;;;;;;13.00;9.25;;;;;;;;5074526;27;45556;-74
2021/12/03 05:51:30;;;;;;;;;15.33;11.00;;;;;;;;5082453;27;45713;-74
2021/12/03 05:53:55;;;;;;;;;11.50;10.75;;;;;;;;5082004;27;46112;-74
2021/12/03 05:56:20;;;;;;;;;16.00;12.75;;;;;;;;5075593;27;45544;-74
2021/12/03 05:58:45;;;;;;;;;14.00;11.33;;;;;;;;5079968;27;45506;-75
2021/12/03 06:01:11;;;;;;;;;11.00;11.00;;;;;;;;5080891;27;45576;-74
2021/12/03 06:03:36;;;;;;;;;18.00;11.00;;;;;;;;5082262;27;46764;-74
2021/12/03 06:06:01;;;;;;;;;14.00;11.33;;;;;;;;5084116;27;45495;-75
2021/12/03 06:08:26;;;;;;;;;14.00;10.33;;;;;;;;5064321;27;45938;-75
2021/12/03 06:10:51;;;;;;;;;15.67;11.00;;;;;;;;5084919;27;45750;-74
2021/12/03 06:13:17;;;;;;;;;9.33;9.33;;;;;;;;5072956;27;46371;-74
2021/12/03 06:15:42;;;;;;;;;14.33;13.33;;;;;;;;5079067;27;45516;-75
2021/12/03 06:18:07;;;;;;;;;15.00;12.00;;;;;;;;5085785;27;45478;-74
2021/12/03 06:20:32;;;;;;;;;8.00;8.00;;;;;;;;5085549;27;45556;-75
2021/12/03 06:22:57;;;;;;;;;11.67;9.33;;;;;;;;5085265;27;45280;-74
2021/12/03 06:25:23;;;;;;;;;10.00;8.33;;;;;;;;5081464;27;45485;-75
2021/12/03 06:27:48;;;;;;;;;11.00;8.00;;;;;;;;5083376;27;45422;-74
2021/12/03 06:30:15;;;;;;;;;11.00;10.25;;;;;;;;5090252;27;45430;-74
2021/12/03 06:32:41;;;;;;;;;9.50;7.25;;;;;;;;5078650;27;45568;-74
2021/12/03 06:35:07;;;;;;;;;9.00;8.50;;;;;;;;5079549;27;45398;-74
2021/12/03 06:37:32;;;;;;;;;7.25;5.00;;;;;;;;5077959;27;45778;-74
2021/12/03 06:39:57;;;;;;;;;13.00;11.67;;;;;;;;5075985;27;45693;-74
2021/12/03 06:42:23;;;;;;;;;7.75;7.00;;;;;;;;5080100;27;45528;-74
2021/12/03 06:44:48;;;;;;;;;12.00;8.33;;;;;;;;5082040;27;45383;-74
2021/12/03 06:47:13;;;;;;;;;13.67;9.33;;;;;;;;5089977;27;45485;-74
2021/12/03 06:49:38;;;;;;;;;9.33;7.00;;;;;;;;5067681;27;45617;-74
2021/12/03 06:52:07;;;;;;;;;11.00;8.50;;;;;;;;5088654;27;45426;-74
2021/12/03 06:54:33;;;;;;;;;9.00;7.00;;;;;;;;5079008;27;46110;-74
2021/12/03 06:57:00;;;;;;;;;10.50;7.50;;;;;;;;5085647;27;45250;-74
2021/12/03 06:59:25;;;;;;;;;10.75;6.75;;;;;;;;5082350;27;45437;-74
2021/12/03 07:01:51;;;;;;;;;9.50;8.00;;;;;;;;5078231;27;45244;-74
2021/12/03 07:04:17;;;;;;;;;11.75;7.00;;;;;;;;5081612;27;45491;-74
2021/12/03 07:06:42;;;;;;;;;9.50;7.50;;;;;;;;5081465;27;45402;-74
2021/12/03 07:09:07;;;;;;;;;9.00;9.00;;;;;;;;5082262;27;45284;-74
2021/12/03 07:11:33;;;;;;;;;8.00;8.00;;;;;;;;5085121;27;45927;-74
2021/12/03 07:13:58;;;;;;;;;12.00;7.00;;;;;;;;5079143;27;45493;-75
2021/12/03 07:16:23;;;;;;;;;10.00;9.00;;;;;;;;5079829;27;45561;-75
2021/12/03 07:18:49;;;;;;;;;8.33;8.33;;;;;;;;5088612;27;45579;-77
2021/12/03 07:21:14;;;;;;;;;8.25;8.25;;;;;;;;5087227;27;45693;-75
2021/12/03 07:23:40;;;;;;;;;10.00;8.25;;;;;;;;5079452;27;45599;-74
2021/12/03 07:26:05;;;;;;;;;10.00;9.00;;;;;;;;5059655;28;45377;-74
2021/12/03 07:28:30;;;;;;;;;6.67;6.33;;;;;;;;5079835;27;45477;-74
2021/12/03 07:30:56;;;;;;;;;8.00;6.50;;;;;;;;5067164;27;46758;-75
2021/12/03 07:33:21;;;;;;;;;11.00;8.00;;;;;;;;5085281;27;45382;-74
2021/12/03 07:35:47;;;;;;;;;9.75;8.50;;;;;;;;5079476;27;45642;-75
2021/12/03 07:38:15;;;;;;;;;9.75;9.75;;;;;;;;5082823;27;45498;-74
2021/12/03 07:40:41;;;;;;;;;10.00;8.25;;;;;;;;5087948;27;45390;-74
2021/12/03 07:43:06;;;;;;;;;14.50;8.00;;;;;;;;5092197;27;45875;-74
2021/12/03 07:45:31;;;;;;;;;8.50;8.00;;;;;;;;5067587;27;45299;-75
2021/12/03 07:47:57;;;;;;;;;12.00;9.67;;;;;;;;5102458;27;45438;-75
2021/12/03 07:50:22;;;;;;;;;7.00;7.00;;;;;;;;5080700;27;45408;-74
2021/12/03 07:52:47;;;;;;;;;8.00;7.33;;;;;;;;5082618;27;45344;-74
2021/12/03 07:55:13;;;;;;;;;10.33;9.00;;;;;;;;5073210;27;45381;-75
2021/12/03 07:57:38;;;;;;;;;11.50;8.75;;;;;;;;5079411;27;45347;-74
2021/12/03 08:00:05;;;;;;;;;11.25;9.00;;;;;;;;5066000;27;46798;-74
2021/12/03 08:02:30;;;;;;;;;13.75;8.00;;;;;;;;5084071;27;45924;-74
2021/12/03 08:04:55;;;;;;;;;10.00;8.00;;;;;;;;5078968;27;45492;-74
2021/12/03 08:07:21;;;;;;;;;11.00;8.33;;;;;;;;5077817;27;45446;-74
2021/12/03 08:09:46;;;;;;;;;12.67;9.33;;;;;;;;5076654;27;46045;-74
2021/12/03 08:12:11;;;;;;;;;10.33;7.33;;;;;;;;5075186;27;45391;-75
2021/12/03 08:14:36;;;;;;;;;11.75;9.00;;;;;;;;5081005;27;45629;-74
2021/12/03 08:17:02;;;;;;;;;10.33;5.00;;;;;;;;5075021;27;45389;-75
2021/12/03 08:19:27;;;;;;;;;10.50;8.00;;;;;;;;5077895;27;46250;-74
2021/12/03 08:21:52;;;;;;;;;9.00;7.00;;;;;;;;5076792;27;45386;-74
2021/12/03 08:24:18;;;;;;;;;12.00;8.00;;;;;;;;5076442;27;45476;-74
2021/12/03 08:26:43;;;;;;;;;9.00;9.00;;;;;;;;5077236;27;45380;-74
2021/12/03 08:29:08;;;;;;;;;9.33;4.33;;;;;;;;5077266;27;45522;-74
2021/12/03 08:31:34;;;;;;;;;10.75;8.50;;;;;;;;5056746;27;45469;-74
2021/12/03 08:33:59;;;;;;;;;9.25;7.00;;;;;;;;5076985;27;45355;-74
2021/12/03 08:36:24;;;;;;;;;7.00;7.00;;;;;;;;5082443;27;45329;-74
2021/12/03 08:38:49;;;;;;;;;7.67;6.33;;;;;;;;5062894;27;46456;-75
2021/12/03 08:41:18;;;;;;;;;14.67;11.00;;;;;;;;5065470;27;45352;-75
2021/12/03 08:43:47;;;;;;;;;16.25;8.00;;;;;;;;5064481;28;45452;-75
2021/12/03 08:46:36;;;;;;;;;10.50;8.50;;;;;;;;5056221;27;45314;-75
2021/12/03 08:50:01;;;;;;;;;13.25;8.50;;;;;;;;5067787;27;46593;-75
2021/12/03 08:52:13;;;;;;;;;7.00;7.00;;;;;;;;5055134;27;45452;-75
2021/12/03 08:54:55;;;;;;;;;11.00;11.00;;;;;;;;5068996;27;45403;-75
2021/12/03 08:57:22;;;;;;;;;8.00;7.75;;;;;;;;5058256;27;45597;-75
2021/12/03 08:59:48;;;;;;;;;9.75;5.25;;;;;;;;5069861;27;46213;-75
2021/12/03 09:02:13;;;;;;;;;12.00;8.00;;;;;;;;5068420;27;45552;-75
2021/12/03 09:04:38;;;;;;;;;4.00;4.00;;;;;;;;5050947;28;45519;-75
2021/12/03 09:07:04;;;;;;;;;15.33;8.67;;;;;;;;5079505;27;45319;-74
2021/12/03 09:09:30;;;;;;;;;9.75;6.25;;;;;;;;5070031;27;45432;-74
2021/12/03 09:11:55;;;;;;;;;7.25;7.25;;;;;;;;5073454;27;45739;-74
2021/12/03 09:14:28;;;;;;;;;7.67;7.67;;;;;;;;5070985;28;45521;-74
2021/12/03 09:17:26;;;;;;;;;11.75;9.00;;;;;;;;5052979;28;45425;-74
2021/12/03 09:24:53;;;;;;;;;9.75;9.00;;;;;;;;5077314;27;45432;-74
2021/12/03 09:27:20;;;;;;;;;12.75;8.25;;;;;;;;5073023;27;46671;-72
2021/12/03 09:29:45;;;;;;;;;8.00;7.50;;;;;;;;5068150;27;45536;-74
2021/12/03 09:32:20;;;;;;;;;7.33;6.00;;;;;;;;5068433;27;45523;-74
2021/12/03 09:34:45;;;;;;;;;6.25;6.00;;;;;;;;5070967;28;45588;-74
2021/12/03 09:37:10;;;;;;;;;7.33;4.33;;;;;;;;5070612;28;45564;-74
2021/12/03 09:39:39;;;;;;;;;33.67;26.67;;;;;;;;5070485;28;45653;-74
2021/12/03 09:42:04;;;;;;;;;8.50;6.50;;;;;;;;5060315;27;45525;-74
2021/12/03 09:44:31;;;;;;;;;9.00;8.00;;;;;;;;5062433;27;45394;-74
2021/12/03 09:46:57;;;;;;;;;9.50;6.50;;;;;;;;5066080;27;45429;-75
2021/12/03 09:54:39;;;;;;;;;12.50;9.50;;;;;;;;5032353;27;45391;-75
2021/12/03 09:57:12;;;;;;;;;9.50;6.00;;;;;;;;5029551;28;45445;-74
2021/12/03 09:59:57;;;;;;;;;10.75;5.75;;;;;;;;5031464;28;45662;-74
2021/12/03 10:02:50;;;;;;;;;8.50;8.50;;;;;;;;5024819;28;45520;-74
2021/12/03 10:16:06;;;;;;;;;5.75;3.50;;;;;;;;5025571;28;45301;-75
2021/12/03 10:18:41;;;;;;;;;5.00;5.00;;;;;;;;5034523;28;45498;-75
2021/12/03 10:29:14;;;;;;;;;6.25;5.00;;;;;;;;5028265;28;45399;-75
2021/12/03 10:46:59;;;;;;;;;9.25;6.00;;;;;;;;5027589;28;45510;-75
2021/12/03 11:43:31;;;;;;;;;5.75;5.00;;;;;;;;5018264;28;45845;-74
2021/12/03 12:09:51;;;;;;;;;5.00;4.00;;;;;;;;5022887;28;45864;-75
2021/12/03 13:24:18;;;;;;;;;6.00;4.00;;;;;;;;5024751;28;45449;-75
2021/12/03 13:40:58;;;;;;;;;2.00;2.00;;;;;;;;5028222;28;46166;-75
2021/12/03 13:59:29;;;;;;;;;4.50;2.00;;;;;;;;5027922;28;45357;-74
2021/12/03 14:02:45;;;;;;;;;2.75;1.00;;;;;;;;5031927;28;45554;-74
2021/12/03 14:09:52;;;;;;;;;4.75;3.00;;;;;;;;5023689;28;45357;-74
2021/12/03 14:15:53;;;;;;;;;0.00;0.00;;;;;;;;5024483;28;45509;-74
2021/12/03 14:21:41;;;;;;;;;3.50;2.00;;;;;;;;5023418;28;45478;-74
2021/12/03 14:42:07;;;;;;;;;3.50;3.50;;;;;;;;4935742;28;45412;-74
2021/12/03 14:44:55;;;;;;;;;2.00;2.00;;;;;;;;4936665;28;46009;-74
2021/12/03 14:53:09;;;;;;;;;4.00;4.00;;;;;;;;4945232;28;45506;-74
2021/12/03 14:55:35;;;;;;;;;2.50;1.75;;;;;;;;4941482;28;46090;-75
2021/12/03 14:58:08;;;;;;;;;5.00;3.00;;;;;;;;4934802;28;45560;-74
2021/12/03 15:00:48;;;;;;;;;2.00;2.00;;;;;;;;4935157;28;45397;-74
2021/12/03 15:08:18;;;;;;;;;5.75;4.00;;;;;;;;5031437;28;45473;-75
2021/12/03 15:18:54;;;;;;;;;3.50;3.50;;;;;;;;5026740;28;45854;-74
2021/12/03 15:24:28;;;;;;;;;4.00;4.00;;;;;;;;5026609;28;45498;-74
2021/12/03 15:34:46;;;;;;;;;5.50;2.00;;;;;;;;5018251;28;45490;-74
2021/12/03 16:04:13;;;;;;;;;5.75;3.50;;;;;;;;5019025;28;49639;-74
2021/12/03 16:07:07;;;;;;;;;2.50;2.50;;;;;;;;5027013;28;45461;-74
2021/12/03 16:15:05;;;;;;;;;4.00;4.00;;;;;;;;5030697;28;45521;-75
2021/12/03 16:17:48;;;;;;;;;4.50;4.50;;;;;;;;5028654;28;46994;-73
2021/12/03 16:20:49;;;;;;;;;5.50;4.25;;;;;;;;5032741;28;45680;-74
2021/12/03 16:50:52;;;;;;;;;5.00;5.00;;;;;;;;5034221;28;45432;-71
2021/12/03 16:53:27;;;;;;;;;4.75;4.00;;;;;;;;5023270;28;47097;-70
2021/12/03 16:56:05;;;;;;;;;4.50;4.50;;;;;;;;5034191;28;45920;-72
2021/12/03 16:58:33;;;;;;;;;5.75;4.00;;;;;;;;5033703;28;45514;-72
2021/12/03 17:01:06;;;;;;;;;6.00;3.75;;;;;;;;5018029;28;45447;-70
2021/12/03 17:04:23;;;;;;;;;1.25;1.25;;;;;;;;5028778;28;47207;-71
2021/12/03 17:14:01;;;;;;;;;5.00;5.00;;;;;;;;5035839;28;45453;-72
2021/12/03 17:44:20;;;;;;;;;6.00;6.00;;;;;;;;5029126;28;45751;-72
2021/12/03 17:49:22;;;;;;;;;7.50;6.50;;;;;;;;5036996;28;45398;-71
2021/12/03 17:56:20;;;;;;;;;5.25;4.75;;;;;;;;5024043;28;45947;-71
2021/12/03 17:58:49;;;;;;;;;8.75;6.00;;;;;;;;5017800;28;45443;-71
2021/12/03 18:01:21;;;;;;;;;5.25;5.25;;;;;;;;5014102;28;45435;-71
2021/12/03 18:09:10;;;;;;;;;8.00;8.00;;;;;;;;5014857;28;46354;-71
2021/12/03 18:17:19;;;;;;;;;8.75;7.50;;;;;;;;5024917;28;45840;-71
2021/12/03 18:44:35;;;;;;;;;8.00;8.00;;;;;;;;5023295;28;45415;-70
2021/12/03 18:54:45;;;;;;;;;11.00;7.33;;;;;;;;5027909;28;45713;-69
2021/12/03 18:57:17;;;;;;;;;5.25;5.00;;;;;;;;5015603;28;45348;-69
2021/12/03 18:59:55;;;;;;;;;5.00;5.00;;;;;;;;5032667;28;46546;-69
2021/12/03 19:02:23;;;;;;;;;8.50;6.50;;;;;;;;5025044;28;45546;-69
2021/12/03 19:04:54;;;;;;;;;13.25;9.00;;;;;;;;5025000;28;45466;-70
2021/12/03 19:07:28;;;;;;;;;8.00;8.00;;;;;;;;5030058;28;45608;-70
2021/12/03 19:09:57;;;;;;;;;9.75;5.75;;;;;;;;5028298;28;46993;-70
2021/12/03 19:12:25;;;;;;;;;11.75;7.50;;;;;;;;5015699;28;45987;-70
2021/12/03 19:14:55;;;;;;;;;6.75;6.00;;;;;;;;5016443;28;45404;-71
2021/12/03 19:17:22;;;;;;;;;7.25;5.00;;;;;;;;5023145;28;45418;-70
2021/12/03 19:19:48;;;;;;;;;12.50;9.50;;;;;;;;5024696;28;45510;-71
2021/12/03 19:22:15;;;;;;;;;8.75;6.00;;;;;;;;5015079;28;46128;-70
2021/12/03 19:24:40;;;;;;;;;9.50;8.75;;;;;;;;5019837;28;45472;-70
2021/12/03 19:27:05;;;;;;;;;10.50;8.00;;;;;;;;5027530;28;45538;-71
2021/12/03 19:29:32;;;;;;;;;6.00;6.00;;;;;;;;5036100;28;45346;-71
2021/12/03 19:31:57;;;;;;;;;7.50;7.50;;;;;;;;5026989;28;45459;-71
2021/12/03 19:34:25;;;;;;;;;11.50;8.00;;;;;;;;5028800;28;45754;-71
2021/12/03 19:36:52;;;;;;;;;6.00;6.00;;;;;;;;5030833;28;45510;-72
2021/12/03 19:39:18;;;;;;;;;11.75;8.50;;;;;;;;5028719;28;47000;-71
2021/12/03 19:41:47;;;;;;;;;11.25;7.25;;;;;;;;5027561;28;45813;-71
2021/12/03 19:44:31;;;;;;;;;10.00;5.50;;;;;;;;5023537;28;45538;-72
2021/12/03 19:46:56;;;;;;;;;10.50;9.50;;;;;;;;5021153;28;45366;-71
2021/12/03 19:51:50;;;;;;;;;7.67;6.00;;;;;;;;5038909;28;45477;-70
2021/12/03 19:54:16;;;;;;;;;7.00;7.00;;;;;;;;5017866;28;45479;-69
2021/12/03 19:56:42;;;;;;;;;12.25;9.50;;;;;;;;5025170;28;45597;-69
2021/12/03 19:59:08;;;;;;;;;9.75;7.25;;;;;;;;5019989;28;45938;-69
2021/12/03 20:01:34;;;;;;;;;11.75;10.50;;;;;;;;5019635;28;45442;-69
2021/12/03 20:04:00;;;;;;;;;11.50;9.00;;;;;;;;5019143;28;45616;-69
2021/12/03 20:06:26;;;;;;;;;9.00;7.75;;;;;;;;5022667;28;45437;-69
2021/12/03 20:08:55;;;;;;;;;8.00;8.00;;;;;;;;5020894;28;45970;-69
2021/12/03 20:11:25;;;;;;;;;12.50;9.25;;;;;;;;5021999;28;45435;-69
2021/12/03 20:13:51;;;;;;;;;11.75;8.75;;;;;;;;5018166;28;45690;-70
2021/12/03 20:18:52;;;;;;;;;13.25;9.25;;;;;;;;5030398;28;45512;-70
2021/12/03 20:21:19;;;;;;;;;7.50;7.00;;;;;;;;5041395;28;45367;-70
2021/12/03 20:31:19;;;;;;;;;13.75;9.00;;;;;;;;5042712;28;45695;-69
2021/12/03 20:36:44;;;;;;;;;9.75;9.50;;;;;;;;5027215;28;45400;-69
2021/12/03 20:39:20;;;;;;;;;9.00;8.25;;;;;;;;5026953;28;45549;-69
2021/12/03 20:42:08;;;;;;;;;10.25;8.50;;;;;;;;5016597;28;46013;-69
2021/12/03 20:52:34;;;;;;;;;11.25;9.75;;;;;;;;5028899;28;45833;-69
2021/12/03 21:08:45;;;;;;;;;10.50;10.50;;;;;;;;5025562;28;45529;-69
2021/12/03 21:11:27;;;;;;;;;9.75;9.75;;;;;;;;5023738;28;45901;-70
2021/12/03 21:13:58;;;;;;;;;10.50;10.50;;;;;;;;5020436;28;45518;-69
2021/12/03 21:19:14;;;;;;;;;13.00;10.25;;;;;;;;5014792;28;45364;-69
2021/12/03 21:24:06;;;;;;;;;17.33;10.67;;;;;;;;5037324;28;45545;-69
2021/12/03 21:26:33;;;;;;;;;14.25;10.50;;;;;;;;5017644;28;45786;-69
2021/12/03 21:29:45;;;;;;;;;14.25;11.00;;;;;;;;5027585;28;45455;-69
2021/12/03 21:31:55;;;;;;;;;13.75;11.75;;;;;;;;5016802;28;46173;-69
2021/12/03 21:42:14;;;;;;;;;15.67;11.67;;;;;;;;5026938;28;46069;-69
2021/12/03 21:44:39;;;;;;;;;11.50;11.50;;;;;;;;5038243;28;45919;-70
2021/12/03 21:47:05;;;;;;;;;10.75;10.75;;;;;;;;5028387;28;45455;-69
2021/12/03 21:49:30;;;;;;;;;13.00;11.33;;;;;;;;5040784;28;45439;-69
2021/12/03 21:51:55;;;;;;;;;12.00;11.25;;;;;;;;5028112;28;45903;-69
2021/12/03 21:54:21;;;;;;;;;12.75;12.75;;;;;;;;5037794;28;45467;-69
2021/12/03 21:56:47;;;;;;;;;20.00;14.50;;;;;;;;5037191;28;45426;-70
2021/12/03 21:59:13;;;;;;;;;13.75;13.75;;;;;;;;5023579;28;45819;-69
2021/12/03 22:01:39;;;;;;;;;16.75;13.50;;;;;;;;5028316;28;47316;-69
2021/12/03 22:04:05;;;;;;;;;18.00;13.00;;;;;;;;5018970;28;45515;-69
2021/12/03 22:06:30;;;;;;;;;13.33;11.00;;;;;;;;5015518;28;45380;-69
2021/12/03 22:08:56;;;;;;;;;14.25;11.50;;;;;;;;5031665;28;45363;-69
2021/12/03 22:11:22;;;;;;;;;16.25;11.75;;;;;;;;5023811;28;47446;-69
2021/12/03 22:13:47;;;;;;;;;20.00;16.00;;;;;;;;5025105;28;45458;-68
2021/12/03 22:16:12;;;;;;;;;16.00;14.00;;;;;;;;5026422;28;45498;-69
2021/12/03 22:18:38;;;;;;;;;16.50;16.25;;;;;;;;5038058;28;46171;-69
2021/12/03 22:21:05;;;;;;;;;24.00;18.00;;;;;;;;5030299;28;46045;-69
2021/12/03 22:23:31;;;;;;;;;19.00;14.75;;;;;;;;5027582;28;45498;-69
2021/12/03 22:25:56;;;;;;;;;16.00;12.00;;;;;;;;5035640;28;45810;-69
2021/12/03 22:28:22;;;;;;;;;14.67;12.67;;;;;;;;5042179;28;45478;-69
2021/12/03 22:30:48;;;;;;;;;21.50;13.25;;;;;;;;5034934;28;45469;-69